createdAt,value
2017-01-04T00:00:11.378Z,957.9
2017-01-04T00:01:20.106Z,957.91
2017-01-04T00:02:28.791Z,957.92
2017-01-04T00:03:37.485Z,957.99
2017-01-04T00:04:46.169Z,958.06
2017-01-04T00:05:54.859Z,958.14
2017-01-04T00:07:03.542Z,958.18
2017-01-04T00:08:12.227Z,958.17
2017-01-04T00:09:20.951Z,958.25
2017-01-04T00:10:29.638Z,958.28
2017-01-04T00:11:38.326Z,958.37
2017-01-04T00:12:47.015Z,958.44
2017-01-04T00:13:55.699Z,958.48
2017-01-04T00:15:04.382Z,958.49
2017-01-04T00:16:13.062Z,958.53
2017-01-04T00:17:21.745Z,958.59
2017-01-04T00:18:30.427Z,958.6
2017-01-04T00:19:39.115Z,958.63
2017-01-04T00:20:47.795Z,958.62
2017-01-04T00:21:56.491Z,958.66
2017-01-04T00:23:05.175Z,958.69
2017-01-04T00:24:13.888Z,958.82
2017-01-04T00:25:22.570Z,958.91
2017-01-04T00:26:31.256Z,958.97
2017-01-04T00:27:39.937Z,958.95
2017-01-04T00:28:48.625Z,959.04
2017-01-04T00:29:57.311Z,959.12
2017-01-04T00:31:05.996Z,959.13
2017-01-04T00:32:14.681Z,959.17
2017-01-04T00:33:23.367Z,959.21
2017-01-04T00:34:32.054Z,959.26
2017-01-04T00:35:40.747Z,959.33
2017-01-04T00:36:49.430Z,959.35
2017-01-04T00:37:58.114Z,959.39
2017-01-04T00:39:06.799Z,959.43
2017-01-04T00:40:15.485Z,959.47
2017-01-04T00:41:24.175Z,959.5
2017-01-04T00:42:32.887Z,959.53
2017-01-04T00:43:41.568Z,959.51
2017-01-04T00:44:50.253Z,959.56
2017-01-04T00:45:58.943Z,959.6
2017-01-04T00:47:07.631Z,959.7
2017-01-04T00:48:16.311Z,959.82
2017-01-04T00:49:24.999Z,959.88
2017-01-04T00:50:33.693Z,959.86
2017-01-04T00:51:42.382Z,959.9
2017-01-04T00:52:51.101Z,959.83
2017-01-04T00:53:59.784Z,959.81
2017-01-04T00:55:08.473Z,959.72
2017-01-04T00:56:17.159Z,959.71
2017-01-04T00:57:25.848Z,959.79
2017-01-04T00:58:34.533Z,959.88
2017-01-04T00:59:43.220Z,959.94
2017-01-04T01:00:51.908Z,960.06
2017-01-04T01:02:00.590Z,960.17
2017-01-04T01:03:09.275Z,960.24
2017-01-04T01:04:17.960Z,960.3
2017-01-04T01:05:26.647Z,960.37
2017-01-04T01:06:35.324Z,960.4
2017-01-04T01:07:44.009Z,960.47
2017-01-04T01:08:52.697Z,960.52
2017-01-04T01:10:01.385Z,960.55
2017-01-04T01:11:10.066Z,960.55
2017-01-04T01:12:18.753Z,960.6
2017-01-04T01:13:27.483Z,960.64
2017-01-04T01:14:36.177Z,960.67
2017-01-04T01:15:44.863Z,960.77
2017-01-04T01:16:53.555Z,960.75
2017-01-04T01:18:02.238Z,960.78
2017-01-04T01:19:10.927Z,960.77
2017-01-04T01:20:19.610Z,960.82
2017-01-04T01:21:28.300Z,960.9
2017-01-04T01:22:36.982Z,960.97
2017-01-04T01:23:45.669Z,961.02
2017-01-04T01:24:54.360Z,961.06
2017-01-04T01:26:03.052Z,961.12
2017-01-04T01:27:11.745Z,961.12
2017-01-04T01:28:20.485Z,961.17
2017-01-04T01:29:29.176Z,961.23
2017-01-04T01:30:37.859Z,961.29
2017-01-04T01:31:46.544Z,961.35
2017-01-04T01:32:55.234Z,961.39
2017-01-04T01:34:03.947Z,961.47
2017-01-04T01:35:12.636Z,961.48
2017-01-04T01:36:21.323Z,961.57
2017-01-04T01:37:30.010Z,961.57
2017-01-04T01:38:38.701Z,961.59
2017-01-04T01:39:47.388Z,961.61
2017-01-04T01:40:56.073Z,961.58
2017-01-04T01:42:04.763Z,961.59
2017-01-04T01:43:13.441Z,961.67
2017-01-04T01:44:22.132Z,961.7
2017-01-04T01:45:30.814Z,961.76
2017-01-04T01:46:39.501Z,961.8
2017-01-04T01:47:48.227Z,961.81
2017-01-04T01:48:56.910Z,961.92
2017-01-04T01:50:06.004Z,961.98
2017-01-04T01:51:14.691Z,962.01
2017-01-04T01:52:23.375Z,962.04
2017-01-04T01:53:32.091Z,962.14
2017-01-04T01:54:40.780Z,962.16
2017-01-04T01:55:49.468Z,962.21
2017-01-04T01:56:58.153Z,962.27
2017-01-04T01:58:06.841Z,962.23
2017-01-04T01:59:15.526Z,962.33
2017-01-04T02:00:24.209Z,962.37
2017-01-04T02:01:32.922Z,962.44
2017-01-04T02:02:41.607Z,962.49
2017-01-04T02:03:50.294Z,962.51
2017-01-04T02:04:58.982Z,962.57
2017-01-04T02:06:07.676Z,962.54
2017-01-04T02:07:16.357Z,962.57
2017-01-04T02:08:25.051Z,962.62
2017-01-04T02:09:33.733Z,962.63
2017-01-04T02:10:42.424Z,962.71
2017-01-04T02:11:51.111Z,962.74
2017-01-04T02:12:59.813Z,962.7
2017-01-04T02:14:08.507Z,962.75
2017-01-04T02:15:17.193Z,962.77
2017-01-04T02:16:25.883Z,962.84
2017-01-04T02:17:34.563Z,962.87
2017-01-04T02:18:43.249Z,962.93
2017-01-04T02:19:51.931Z,962.96
2017-01-04T02:21:00.620Z,963.02
2017-01-04T02:22:09.314Z,963.06
2017-01-04T02:23:17.995Z,963.05
2017-01-04T02:24:26.681Z,963.11
2017-01-04T02:25:35.370Z,963.08
2017-01-04T02:26:44.055Z,963.09
2017-01-04T02:27:52.743Z,963.15
2017-01-04T02:29:01.431Z,963.13
2017-01-04T02:30:10.121Z,963.16
2017-01-04T02:31:18.812Z,963.19
2017-01-04T02:32:27.504Z,963.27
2017-01-04T02:33:36.185Z,963.28
2017-01-04T02:34:44.865Z,963.42
2017-01-04T02:35:53.549Z,963.45
2017-01-04T02:37:02.234Z,963.52
2017-01-04T02:38:10.916Z,963.6
2017-01-04T02:39:19.604Z,963.62
2017-01-04T02:40:28.291Z,963.66
2017-01-04T02:41:36.979Z,963.67
2017-01-04T02:42:45.670Z,963.7
2017-01-04T02:43:54.353Z,963.72
2017-01-04T02:45:03.034Z,963.77
2017-01-04T02:46:11.759Z,963.79
2017-01-04T02:47:20.445Z,963.81
2017-01-04T02:48:29.129Z,963.8
2017-01-04T02:49:37.821Z,963.77
2017-01-04T02:50:46.509Z,963.81
2017-01-04T02:51:55.194Z,963.78
2017-01-04T02:53:03.888Z,963.8
2017-01-04T02:54:12.571Z,963.79
2017-01-04T02:55:21.265Z,963.89
2017-01-04T02:56:29.957Z,963.88
2017-01-04T02:57:38.650Z,963.94
2017-01-04T02:58:47.331Z,964.02
2017-01-04T02:59:56.016Z,964.06
2017-01-04T03:01:04.702Z,964.1
2017-01-04T03:02:13.388Z,964.09
2017-01-04T03:03:22.079Z,964.16
2017-01-04T03:04:30.763Z,964.12
2017-01-04T03:05:39.448Z,964.13
2017-01-04T03:06:48.133Z,964.09
2017-01-04T03:07:56.820Z,964.16
2017-01-04T03:09:05.510Z,964.16
2017-01-04T03:10:14.202Z,964.15
2017-01-04T03:11:22.887Z,964.18
2017-01-04T03:12:31.578Z,964.31
2017-01-04T03:13:40.266Z,964.35
2017-01-04T03:14:48.953Z,964.36
2017-01-04T03:15:57.635Z,964.33
2017-01-04T03:17:06.315Z,964.35
2017-01-04T03:18:14.996Z,964.38
2017-01-04T03:19:23.679Z,964.43
2017-01-04T03:20:32.363Z,964.52
2017-01-04T03:21:41.049Z,964.49
2017-01-04T03:22:49.733Z,964.58
2017-01-04T03:23:58.417Z,964.63
2017-01-04T03:25:07.113Z,964.63
2017-01-04T03:26:15.800Z,964.7
2017-01-04T03:27:24.487Z,964.72
2017-01-04T03:28:33.167Z,964.72
2017-01-04T03:29:41.882Z,964.74
2017-01-04T03:30:50.578Z,964.79
2017-01-04T03:31:59.290Z,964.89
2017-01-04T03:33:07.977Z,964.89
2017-01-04T03:34:16.663Z,964.91
2017-01-04T03:35:25.348Z,964.94
2017-01-04T03:36:34.031Z,964.97
2017-01-04T03:37:42.720Z,965.02
2017-01-04T03:38:51.408Z,965.07
2017-01-04T03:40:00.099Z,965.14
2017-01-04T03:41:08.782Z,965.1
2017-01-04T03:42:17.464Z,965.2
2017-01-04T03:43:26.146Z,965.25
2017-01-04T03:44:34.838Z,965.24
2017-01-04T03:45:43.521Z,965.24
2017-01-04T03:46:52.201Z,965.29
2017-01-04T03:48:00.891Z,965.32
2017-01-04T03:49:09.578Z,965.34
2017-01-04T03:50:18.267Z,965.36
2017-01-04T03:51:26.949Z,965.37
2017-01-04T03:52:35.642Z,965.37
2017-01-04T03:53:44.329Z,965.39
2017-01-04T03:54:53.010Z,965.38
2017-01-04T03:56:01.697Z,965.47
2017-01-04T03:57:10.385Z,965.55
2017-01-04T03:58:19.070Z,965.61
2017-01-04T03:59:27.753Z,965.65
2017-01-04T04:00:36.440Z,965.75
2017-01-04T04:01:45.124Z,965.79
2017-01-04T04:02:53.841Z,965.79
2017-01-04T04:04:02.528Z,965.83
2017-01-04T04:05:11.217Z,965.88
2017-01-04T04:06:19.907Z,965.9
2017-01-04T04:07:28.592Z,965.97
2017-01-04T04:08:37.368Z,965.99
2017-01-04T04:09:46.054Z,966
2017-01-04T04:10:54.742Z,966.05
2017-01-04T04:12:03.428Z,966.04
2017-01-04T04:13:12.222Z,966.11
2017-01-04T04:14:20.906Z,966.18
2017-01-04T04:15:29.593Z,966.17
2017-01-04T04:16:38.279Z,966.18
2017-01-04T04:17:46.965Z,966.23
2017-01-04T04:18:55.651Z,966.21
2017-01-04T04:20:04.338Z,966.27
2017-01-04T04:21:13.020Z,966.26
2017-01-04T04:22:21.712Z,966.29
2017-01-04T04:23:30.391Z,966.31
2017-01-04T04:24:39.079Z,966.33
2017-01-04T04:25:47.759Z,966.37
2017-01-04T04:26:56.444Z,966.41
2017-01-04T04:28:05.128Z,966.44
2017-01-04T04:29:13.823Z,966.42
2017-01-04T04:30:22.555Z,966.48
2017-01-04T04:31:31.241Z,966.52
2017-01-04T04:32:39.921Z,966.45
2017-01-04T04:33:48.605Z,966.51
2017-01-04T04:34:57.290Z,966.54
2017-01-04T04:36:05.981Z,966.65
2017-01-04T04:37:14.695Z,966.71
2017-01-04T04:38:23.382Z,966.76
2017-01-04T04:39:32.069Z,966.79
2017-01-04T04:40:40.758Z,966.86
2017-01-04T04:41:49.468Z,966.87
2017-01-04T04:42:58.152Z,966.91
2017-01-04T04:44:06.841Z,966.89
2017-01-04T04:45:15.527Z,967.04
2017-01-04T04:46:24.211Z,967.07
2017-01-04T04:47:32.897Z,967.08
2017-01-04T04:48:41.586Z,967.07
2017-01-04T04:49:50.275Z,967.13
2017-01-04T04:50:58.960Z,967.19
2017-01-04T04:52:07.641Z,967.2
2017-01-04T04:53:16.360Z,967.28
2017-01-04T04:54:25.049Z,967.36
2017-01-04T04:55:33.735Z,967.39
2017-01-04T04:56:42.420Z,967.51
2017-01-04T04:57:51.113Z,967.57
2017-01-04T04:58:59.805Z,967.59
2017-01-04T05:00:08.499Z,967.52
2017-01-04T05:01:17.183Z,967.57
2017-01-04T05:02:25.867Z,967.56
2017-01-04T05:03:34.568Z,967.54
2017-01-04T05:04:43.256Z,967.55
2017-01-04T05:05:51.944Z,967.49
2017-01-04T05:07:00.637Z,967.51
2017-01-04T05:08:09.316Z,967.46
2017-01-04T05:09:18.005Z,967.51
2017-01-04T05:10:28.993Z,967.56
2017-01-04T05:11:37.679Z,967.54
2017-01-04T05:12:46.370Z,967.59
2017-01-04T05:13:55.056Z,967.54
2017-01-04T05:15:03.738Z,967.53
2017-01-04T05:16:12.800Z,967.69
2017-01-04T05:17:21.481Z,967.67
2017-01-04T05:18:30.165Z,967.48
2017-01-04T05:19:38.851Z,967.64
2017-01-04T05:20:47.534Z,967.64
2017-01-04T05:21:56.267Z,967.71
2017-01-04T05:23:04.955Z,967.71
2017-01-04T05:24:13.644Z,967.75
2017-01-04T05:25:22.330Z,967.75
2017-01-04T05:26:31.017Z,967.7
2017-01-04T05:27:39.752Z,967.85
2017-01-04T05:28:48.444Z,967.83
2017-01-04T05:29:57.127Z,967.89
2017-01-04T05:31:05.815Z,968.01
2017-01-04T05:32:14.503Z,967.96
2017-01-04T05:33:23.281Z,968.03
2017-01-04T05:34:31.964Z,968.13
2017-01-04T05:35:40.650Z,968.25
2017-01-04T05:36:49.362Z,968.28
2017-01-04T05:37:58.047Z,968.3
2017-01-04T05:39:06.807Z,968.3
2017-01-04T05:40:15.497Z,968.34
2017-01-04T05:41:24.183Z,968.31
2017-01-04T05:42:32.869Z,968.35
2017-01-04T05:43:41.552Z,968.38
2017-01-04T05:44:50.287Z,968.37
2017-01-04T05:45:58.974Z,968.34
2017-01-04T05:47:07.664Z,968.35
2017-01-04T05:48:16.344Z,968.38
2017-01-04T05:49:25.033Z,968.35
2017-01-04T05:50:33.770Z,968.38
2017-01-04T05:51:42.455Z,968.44
2017-01-04T05:52:51.140Z,968.4
2017-01-04T05:53:59.828Z,968.38
2017-01-04T05:55:08.511Z,968.52
2017-01-04T05:56:17.248Z,968.57
2017-01-04T05:57:25.934Z,968.61
2017-01-04T05:58:34.623Z,968.68
2017-01-04T05:59:43.313Z,968.79
2017-01-04T06:00:51.996Z,968.81
2017-01-04T06:02:00.733Z,968.91
2017-01-04T06:03:09.422Z,968.74
2017-01-04T06:04:18.503Z,968.91
2017-01-04T06:05:27.194Z,968.99
2017-01-04T06:06:35.874Z,969.09
2017-01-04T06:07:44.604Z,969.11
2017-01-04T06:08:53.291Z,968.97
2017-01-04T06:10:01.979Z,969.07
2017-01-04T06:11:10.665Z,969.06
2017-01-04T06:12:19.374Z,969.11
2017-01-04T06:13:28.108Z,969.23
2017-01-04T06:14:36.794Z,969.22
2017-01-04T06:15:45.477Z,969.25
2017-01-04T06:16:54.159Z,969.37
2017-01-04T06:18:02.844Z,969.49
2017-01-04T06:19:12.006Z,969.5
2017-01-04T06:20:20.696Z,969.6
2017-01-04T06:21:29.383Z,969.57
2017-01-04T06:22:38.068Z,969.74
2017-01-04T06:23:46.756Z,969.74
2017-01-04T06:24:55.489Z,969.82
2017-01-04T06:26:04.175Z,969.61
2017-01-04T06:27:12.903Z,969.62
2017-01-04T06:28:21.614Z,969.73
2017-01-04T06:29:30.325Z,969.7
2017-01-04T06:30:39.059Z,969.74
2017-01-04T06:31:47.738Z,969.72
2017-01-04T06:32:56.459Z,969.72
2017-01-04T06:34:05.147Z,969.61
2017-01-04T06:35:13.838Z,969.61
2017-01-04T06:36:22.568Z,969.63
2017-01-04T06:37:31.253Z,969.58
2017-01-04T06:38:39.961Z,969.7
2017-01-04T06:39:48.646Z,969.8
2017-01-04T06:40:57.329Z,969.84
2017-01-04T06:42:06.566Z,969.86
2017-01-04T06:43:15.256Z,969.93
2017-01-04T06:44:23.950Z,969.89
2017-01-04T06:45:32.638Z,970.01
2017-01-04T06:46:41.386Z,969.89
2017-01-04T06:47:50.127Z,970.04
2017-01-04T06:48:58.810Z,969.8
2017-01-04T06:50:07.489Z,969.93
2017-01-04T06:51:16.194Z,969.89
2017-01-04T06:52:24.880Z,969.86
2017-01-04T06:53:33.612Z,969.93
2017-01-04T06:54:42.322Z,970.17
2017-01-04T06:55:51.018Z,970
2017-01-04T06:56:59.700Z,970.15
2017-01-04T06:58:08.413Z,970.14
2017-01-04T06:59:17.153Z,970.23
2017-01-04T07:00:25.834Z,970.23
2017-01-04T07:01:34.526Z,970.22
2017-01-04T07:02:43.210Z,970.38
2017-01-04T07:03:51.900Z,970.37
2017-01-04T07:05:00.629Z,970.31
2017-01-04T07:06:09.314Z,970.18
2017-01-04T07:07:17.998Z,970.29
2017-01-04T07:08:26.688Z,970.35
2017-01-04T07:09:35.373Z,970.19
2017-01-04T07:10:44.106Z,970.39
2017-01-04T07:11:52.790Z,970.5
2017-01-04T07:13:01.500Z,970.44
2017-01-04T07:14:10.181Z,970.58
2017-01-04T07:15:18.866Z,970.36
2017-01-04T07:16:27.596Z,970.57
2017-01-04T07:17:36.280Z,970.24
2017-01-04T07:18:44.961Z,970.33
2017-01-04T07:19:53.644Z,970.62
2017-01-04T07:21:02.329Z,970.26
2017-01-04T07:22:11.077Z,970.83
2017-01-04T07:23:19.786Z,970.43
2017-01-04T07:24:28.468Z,970.48
2017-01-04T07:25:37.160Z,970.75
2017-01-04T07:26:45.853Z,970.5
2017-01-04T07:27:54.593Z,970.45
2017-01-04T07:29:03.278Z,970.81
2017-01-04T07:30:11.970Z,970.61
2017-01-04T07:31:20.659Z,970.29
2017-01-04T07:32:29.346Z,970.68
2017-01-04T07:33:38.080Z,970.85
2017-01-04T07:34:46.759Z,970.79
2017-01-04T07:35:55.444Z,970.93
2017-01-04T07:37:04.126Z,970.85
2017-01-04T07:38:12.809Z,971.07
2017-01-04T07:39:21.557Z,970.95
2017-01-04T07:40:30.235Z,971.3
2017-01-04T07:41:38.916Z,971.2
2017-01-04T07:42:47.610Z,971.41
2017-01-04T07:43:56.299Z,971.35
2017-01-04T07:45:05.034Z,971.53
2017-01-04T07:46:13.723Z,971.59
2017-01-04T07:47:22.415Z,971.84
2017-01-04T07:48:31.101Z,971.8
2017-01-04T07:49:39.786Z,971.75
2017-01-04T07:50:48.518Z,971.72
2017-01-04T07:51:57.203Z,971.81
2017-01-04T07:53:05.883Z,971.81
2017-01-04T07:54:14.576Z,971.94
2017-01-04T07:55:23.262Z,971.92
2017-01-04T07:56:31.993Z,971.97
2017-01-04T07:57:40.682Z,972.05
2017-01-04T07:58:49.370Z,971.79
2017-01-04T07:59:58.061Z,972.04
2017-01-04T08:01:06.744Z,972.05
2017-01-04T08:02:15.475Z,971.84
2017-01-04T08:03:24.162Z,972
2017-01-04T08:04:32.841Z,972.02
2017-01-04T08:05:41.522Z,972.1
2017-01-04T08:06:50.205Z,972.06
2017-01-04T08:07:58.945Z,972.02
2017-01-04T08:09:07.665Z,972.29
2017-01-04T08:10:16.345Z,972.3
2017-01-04T08:11:25.028Z,972.26
2017-01-04T08:12:33.714Z,972.29
2017-01-04T08:13:42.467Z,972.2
2017-01-04T08:14:51.549Z,972.44
2017-01-04T08:16:00.230Z,972.41
2017-01-04T08:17:08.915Z,972.46
2017-01-04T08:18:17.601Z,972.62
2017-01-04T08:19:26.331Z,972.64
2017-01-04T08:20:35.019Z,972.07
2017-01-04T08:21:43.704Z,972.53
2017-01-04T08:22:52.388Z,972.55
2017-01-04T08:24:01.071Z,972.62
2017-01-04T08:25:09.811Z,972.68
2017-01-04T08:26:18.498Z,972.8
2017-01-04T08:27:27.188Z,972.78
2017-01-04T08:28:35.873Z,972.74
2017-01-04T08:29:44.552Z,972.68
2017-01-04T08:30:53.282Z,972.83
2017-01-04T08:32:01.972Z,972.87
2017-01-04T08:33:10.659Z,972.77
2017-01-04T08:34:19.337Z,972.93
2017-01-04T08:35:28.017Z,972.94
2017-01-04T08:36:37.005Z,972.98
2017-01-04T08:37:45.686Z,972.89
2017-01-04T08:38:54.371Z,972.92
2017-01-04T08:40:03.061Z,973.08
2017-01-04T08:41:12.157Z,973.03
2017-01-04T08:42:20.891Z,973.12
2017-01-04T08:43:29.583Z,973.05
2017-01-04T08:44:38.263Z,973.15
2017-01-04T08:45:46.945Z,972.99
2017-01-04T08:46:55.627Z,973.11
2017-01-04T08:48:04.657Z,973.15
2017-01-04T08:49:13.335Z,973.07
2017-01-04T08:50:22.017Z,973.2
2017-01-04T08:51:30.697Z,973.35
2017-01-04T08:52:39.383Z,973.34
2017-01-04T08:53:48.116Z,973.5
2017-01-04T08:54:56.832Z,973.64
2017-01-04T08:56:05.513Z,973.59
2017-01-04T08:57:14.200Z,973.6
2017-01-04T08:58:22.886Z,973.68
2017-01-04T08:59:31.623Z,973.56
2017-01-04T09:00:40.310Z,973.59
2017-01-04T09:01:48.991Z,973.49
2017-01-04T09:02:57.676Z,973.44
2017-01-04T09:04:06.366Z,973.68
2017-01-04T09:05:15.056Z,973.44
2017-01-04T09:06:23.746Z,973.47
2017-01-04T09:07:32.434Z,973.5
2017-01-04T09:08:41.111Z,973.78
2017-01-04T09:09:49.796Z,973.42
2017-01-04T09:10:58.478Z,973.68
2017-01-04T09:12:07.169Z,973.58
2017-01-04T09:13:15.851Z,973.63
2017-01-04T09:14:24.542Z,973.7
2017-01-04T09:15:33.235Z,973.72
2017-01-04T09:16:41.926Z,973.73
2017-01-04T09:17:50.608Z,973.83
2017-01-04T09:18:59.298Z,973.87
2017-01-04T09:20:08.032Z,973.82
2017-01-04T09:21:16.726Z,973.78
2017-01-04T09:22:25.712Z,973.82
2017-01-04T09:23:34.396Z,973.82
2017-01-04T09:24:43.081Z,973.77
2017-01-04T09:25:51.763Z,973.88
2017-01-04T09:27:00.451Z,973.89
2017-01-04T09:28:09.195Z,973.95
2017-01-04T09:29:17.886Z,973.99
2017-01-04T09:30:26.606Z,974.02
2017-01-04T09:31:35.291Z,973.92
2017-01-04T09:32:43.978Z,974.05
2017-01-04T09:33:52.663Z,973.95
2017-01-04T09:35:01.347Z,974.09
2017-01-04T09:36:10.029Z,973.99
2017-01-04T09:37:18.716Z,973.99
2017-01-04T09:38:27.400Z,974.02
2017-01-04T09:39:36.082Z,974.23
2017-01-04T09:40:44.774Z,974.21
2017-01-04T09:41:53.459Z,974.36
2017-01-04T09:43:02.141Z,974.17
2017-01-04T09:44:10.834Z,974.2
2017-01-04T09:45:19.528Z,974.29
2017-01-04T09:46:28.213Z,974.14
2017-01-04T09:47:36.897Z,974.39
2017-01-04T09:48:45.583Z,974.64
2017-01-04T09:49:54.281Z,974.69
2017-01-04T09:51:02.967Z,974.57
2017-01-04T09:52:11.650Z,974.71
2017-01-04T09:53:20.337Z,974.61
2017-01-04T09:54:29.418Z,974.74
2017-01-04T09:55:38.100Z,974.62
2017-01-04T09:56:46.785Z,974.8
2017-01-04T09:57:55.472Z,974.64
2017-01-04T09:59:04.152Z,974.53
2017-01-04T10:00:12.834Z,974.63
2017-01-04T10:01:21.525Z,974.82
2017-01-04T10:02:30.207Z,974.98
2017-01-04T10:03:38.886Z,974.88
2017-01-04T10:04:47.569Z,974.73
2017-01-04T10:05:56.252Z,974.81
2017-01-04T10:07:04.937Z,974.77
2017-01-04T10:08:13.623Z,974.68
2017-01-04T10:09:22.310Z,974.78
2017-01-04T10:10:31.035Z,975.01
2017-01-04T10:11:39.718Z,975.03
2017-01-04T10:12:48.406Z,974.88
2017-01-04T10:13:57.095Z,974.87
2017-01-04T10:15:05.785Z,975.13
2017-01-04T10:16:14.474Z,974.9
2017-01-04T10:17:23.153Z,974.98
2017-01-04T10:18:31.834Z,974.61
2017-01-04T10:19:40.544Z,975.04
2017-01-04T10:20:49.225Z,975.07
2017-01-04T10:21:57.909Z,975.28
2017-01-04T10:23:06.592Z,975.29
2017-01-04T10:24:15.367Z,975.2
2017-01-04T10:25:24.049Z,975.3
2017-01-04T10:26:32.732Z,975.28
2017-01-04T10:27:41.410Z,975.39
2017-01-04T10:28:50.092Z,975.51
2017-01-04T10:29:58.775Z,975.51
2017-01-04T10:31:07.464Z,975.45
2017-01-04T10:32:16.146Z,975.49
2017-01-04T10:33:24.826Z,975.62
2017-01-04T10:34:33.511Z,975.78
2017-01-04T10:35:42.197Z,975.65
2017-01-04T10:36:50.905Z,975.79
2017-01-04T10:37:59.594Z,975.78
2017-01-04T10:39:08.282Z,975.82
2017-01-04T10:40:16.968Z,975.82
2017-01-04T10:41:25.651Z,975.64
2017-01-04T10:42:34.336Z,975.65
2017-01-04T10:43:43.041Z,975.68
2017-01-04T10:44:51.726Z,975.66
2017-01-04T10:46:00.418Z,975.82
2017-01-04T10:47:09.098Z,975.87
2017-01-04T10:48:17.779Z,975.7
2017-01-04T10:49:26.461Z,975.84
2017-01-04T10:50:35.145Z,975.97
2017-01-04T10:51:43.831Z,976.03
2017-01-04T10:52:52.514Z,975.91
2017-01-04T10:54:01.194Z,976.03
2017-01-04T10:55:09.887Z,976.03
2017-01-04T10:56:18.570Z,975.97
2017-01-04T10:57:27.648Z,975.91
2017-01-04T10:58:36.329Z,975.81
2017-01-04T10:59:45.012Z,976.01
2017-01-04T11:00:53.692Z,975.95
2017-01-04T11:02:02.377Z,976.18
2017-01-04T11:03:11.062Z,975.82
2017-01-04T11:04:19.774Z,976.21
2017-01-04T11:05:28.456Z,976.26
2017-01-04T11:06:37.153Z,976.3
2017-01-04T11:07:45.838Z,976.29
2017-01-04T11:08:54.519Z,976.43
2017-01-04T11:10:03.197Z,976.31
2017-01-04T11:11:11.875Z,976.34
2017-01-04T11:12:20.560Z,976.54
2017-01-04T11:13:29.242Z,976.67
2017-01-04T11:14:37.921Z,976.66
2017-01-04T11:15:46.607Z,976.62
2017-01-04T11:16:55.286Z,976.6
2017-01-04T11:18:03.975Z,976.68
2017-01-04T11:19:12.668Z,976.8
2017-01-04T11:20:21.349Z,976.68
2017-01-04T11:21:30.032Z,976.88
2017-01-04T11:22:38.718Z,976.93
2017-01-04T11:23:47.404Z,976.81
2017-01-04T11:24:56.085Z,977.06
2017-01-04T11:26:04.770Z,977.07
2017-01-04T11:27:13.449Z,977.11
2017-01-04T11:28:22.133Z,976.93
2017-01-04T11:29:30.818Z,977.14
2017-01-04T11:30:39.502Z,977.2
2017-01-04T11:31:48.184Z,977.31
2017-01-04T11:32:56.868Z,977.31
2017-01-04T11:34:05.549Z,977.28
2017-01-04T11:35:14.234Z,977.38
2017-01-04T11:36:22.913Z,977.36
2017-01-04T11:37:31.599Z,977.5
2017-01-04T11:38:40.283Z,977.42
2017-01-04T11:39:48.971Z,977.5
2017-01-04T11:40:57.650Z,977.52
2017-01-04T11:42:06.329Z,977.66
2017-01-04T11:43:15.012Z,977.67
2017-01-04T11:44:23.710Z,977.57
2017-01-04T11:45:32.420Z,977.72
2017-01-04T11:46:41.103Z,977.76
2017-01-04T11:47:49.787Z,977.77
2017-01-04T11:48:58.472Z,977.79
2017-01-04T11:50:07.156Z,977.9
2017-01-04T11:51:15.837Z,977.93
2017-01-04T11:52:24.520Z,977.78
2017-01-04T11:53:33.225Z,977.82
2017-01-04T11:54:41.915Z,977.85
2017-01-04T11:55:50.599Z,977.87
2017-01-04T11:56:59.282Z,978.02
2017-01-04T11:58:07.967Z,977.97
2017-01-04T11:59:16.652Z,977.89
2017-01-04T12:00:25.335Z,978.12
2017-01-04T12:01:34.015Z,978.16
2017-01-04T12:02:42.701Z,978.19
2017-01-04T12:03:51.390Z,978.16
2017-01-04T12:05:00.074Z,978.26
2017-01-04T12:06:08.759Z,978.23
2017-01-04T12:07:17.442Z,978.4
2017-01-04T12:08:26.154Z,978.44
2017-01-04T12:09:34.834Z,978.52
2017-01-04T12:10:43.514Z,978.5
2017-01-04T12:11:52.200Z,978.49
2017-01-04T12:13:00.884Z,978.41
2017-01-04T12:14:09.567Z,978.6
2017-01-04T12:15:18.250Z,978.61
2017-01-04T12:16:26.937Z,978.63
2017-01-04T12:17:35.627Z,978.65
2017-01-04T12:18:44.310Z,978.66
2017-01-04T12:19:52.988Z,978.67
2017-01-04T12:21:01.666Z,978.76
2017-01-04T12:22:10.353Z,978.84
2017-01-04T12:23:19.044Z,978.8
2017-01-04T12:24:28.520Z,978.98
2017-01-04T12:25:37.206Z,979
2017-01-04T12:26:45.892Z,979.15
2017-01-04T12:27:54.574Z,979.11
2017-01-04T12:29:03.655Z,979.09
2017-01-04T12:30:12.409Z,979.08
2017-01-04T12:31:21.117Z,978.98
2017-01-04T12:32:29.801Z,979.13
2017-01-04T12:33:38.501Z,979.23
2017-01-04T12:34:47.183Z,979.12
2017-01-04T12:35:55.867Z,979.1
2017-01-04T12:37:04.555Z,979.13
2017-01-04T12:38:13.243Z,979.16
2017-01-04T12:39:21.923Z,979.26
2017-01-04T12:40:30.603Z,979.25
2017-01-04T12:41:39.290Z,979.26
2017-01-04T12:42:47.972Z,979.39
2017-01-04T12:43:56.680Z,979.34
2017-01-04T12:45:05.415Z,979.44
2017-01-04T12:46:14.107Z,979.38
2017-01-04T12:47:22.791Z,979.5
2017-01-04T12:48:31.488Z,979.48
2017-01-04T12:49:40.167Z,979.61
2017-01-04T12:50:48.848Z,979.62
2017-01-04T12:51:57.545Z,979.61
2017-01-04T12:53:06.231Z,979.51
2017-01-04T12:54:14.915Z,979.57
2017-01-04T12:55:23.602Z,979.71
2017-01-04T12:56:32.283Z,979.74
2017-01-04T12:57:40.967Z,979.74
2017-01-04T12:58:49.666Z,979.75
2017-01-04T12:59:58.349Z,979.71
2017-01-04T13:01:07.043Z,979.73
2017-01-04T13:02:15.733Z,979.73
2017-01-04T13:03:24.420Z,979.67
2017-01-04T13:04:33.106Z,979.73
2017-01-04T13:05:41.797Z,979.77
2017-01-04T13:06:50.482Z,979.84
2017-01-04T13:07:59.168Z,979.95
2017-01-04T13:09:07.852Z,979.87
2017-01-04T13:10:16.532Z,980.01
2017-01-04T13:11:25.215Z,980.01
2017-01-04T13:12:33.917Z,980.09
2017-01-04T13:13:42.606Z,980.14
2017-01-04T13:14:51.292Z,980.23
2017-01-04T13:15:59.979Z,980.22
2017-01-04T13:17:08.660Z,980.36
2017-01-04T13:18:17.343Z,980.3
2017-01-04T13:19:26.024Z,980.4
2017-01-04T13:20:34.710Z,980.4
2017-01-04T13:21:43.397Z,980.51
2017-01-04T13:22:52.185Z,980.52
2017-01-04T13:24:00.865Z,980.57
2017-01-04T13:25:09.542Z,980.57
2017-01-04T13:26:18.624Z,980.62
2017-01-04T13:27:27.307Z,980.62
2017-01-04T13:28:35.991Z,980.63
2017-01-04T13:29:44.672Z,980.66
2017-01-04T13:30:53.351Z,980.56
2017-01-04T13:32:02.028Z,980.7
2017-01-04T13:33:10.714Z,980.52
2017-01-04T13:34:19.396Z,980.67
2017-01-04T13:35:28.077Z,980.8
2017-01-04T13:36:36.759Z,980.76
2017-01-04T13:37:45.447Z,980.8
2017-01-04T13:38:54.129Z,980.84
2017-01-04T13:40:02.810Z,980.84
2017-01-04T13:41:11.491Z,980.87
2017-01-04T13:42:20.177Z,980.9
2017-01-04T13:43:28.865Z,981.02
2017-01-04T13:44:37.581Z,981.06
2017-01-04T13:45:46.264Z,981.12
2017-01-04T13:46:54.946Z,981.12
2017-01-04T13:48:03.626Z,981.21
2017-01-04T13:49:12.312Z,981.13
2017-01-04T13:50:20.988Z,981.15
2017-01-04T13:51:29.671Z,981.22
2017-01-04T13:52:38.364Z,981.18
2017-01-04T13:53:47.046Z,981.12
2017-01-04T13:54:55.731Z,981.09
2017-01-04T13:56:04.419Z,981.12
2017-01-04T13:57:13.107Z,981.17
2017-01-04T13:58:21.787Z,981.19
2017-01-04T13:59:30.473Z,981.2
2017-01-04T14:00:39.155Z,981.24
2017-01-04T14:01:47.847Z,981.3
2017-01-04T14:02:56.543Z,981.38
2017-01-04T14:04:05.225Z,981.42
2017-01-04T14:05:13.934Z,981.42
2017-01-04T14:06:22.617Z,981.38
2017-01-04T14:07:31.301Z,981.45
2017-01-04T14:08:39.990Z,981.48
2017-01-04T14:09:48.671Z,981.45
2017-01-04T14:10:57.357Z,981.51
2017-01-04T14:12:06.042Z,981.58
2017-01-04T14:13:14.731Z,981.6
2017-01-04T14:14:23.420Z,981.57
2017-01-04T14:15:32.102Z,981.58
2017-01-04T14:16:41.185Z,981.66
2017-01-04T14:17:49.872Z,981.61
2017-01-04T14:18:58.575Z,981.65
2017-01-04T14:20:07.253Z,981.7